createdAt,value
2018-07-25T00:00:38.740Z,15.10
2018-07-25T00:03:10.809Z,15.67
2018-07-25T00:05:39.066Z,14.50
2018-07-25T00:08:07.303Z,14.17
2018-07-25T00:10:40.908Z,14.80
2018-07-25T00:13:09.492Z,14.87
2018-07-25T00:15:37.717Z,15.50
2018-07-25T00:18:05.995Z,14.43
2018-07-25T00:20:34.262Z,15.37
2018-07-25T00:23:02.695Z,14.73
2018-07-25T00:25:30.958Z,16.07
2018-07-25T00:27:59.200Z,16.90
2018-07-25T00:30:27.452Z,15.63
2018-07-25T00:32:55.652Z,15.50
2018-07-25T00:35:23.887Z,14.83
2018-07-25T00:37:52.102Z,15.33
2018-07-25T00:40:20.347Z,15.80
2018-07-25T00:42:48.982Z,16.37
2018-07-25T00:45:18.159Z,15.08
2018-07-25T00:47:46.387Z,15.83
2018-07-25T00:50:14.583Z,15.78
2018-07-25T00:52:43.201Z,15.25
2018-07-25T00:55:11.425Z,15.93
2018-07-25T00:57:39.684Z,16.50
2018-07-25T01:00:07.920Z,15.20
2018-07-25T01:02:47.387Z,15.27
2018-07-25T01:05:15.778Z,14.97
2018-07-25T01:07:44.422Z,16.75
2018-07-25T01:10:12.698Z,15.50
2018-07-25T01:12:40.936Z,15.47
2018-07-25T01:15:10.123Z,17.33
2018-07-25T01:17:50.300Z,15.25
2018-07-25T01:20:18.555Z,17.03
2018-07-25T01:22:46.776Z,15.57
2018-07-25T01:25:15.736Z,17.65
2018-07-25T01:27:44.003Z,17.93
2018-07-25T01:30:12.280Z,14.68
2018-07-25T01:32:40.572Z,17.45
2018-07-25T01:35:08.772Z,15.40
2018-07-25T01:37:37.137Z,17.10
2018-07-25T01:40:05.380Z,18.40
2018-07-25T01:42:33.604Z,16.25
2018-07-25T01:45:01.837Z,18.73
2018-07-25T01:47:30.064Z,18.27
2018-07-25T01:50:02.539Z,17.83
2018-07-25T01:52:30.787Z,17.33
2018-07-25T01:54:59.180Z,17.57
2018-07-25T01:57:27.388Z,16.70
2018-07-25T01:59:55.616Z,17.83
2018-07-25T02:02:23.829Z,16.37
2018-07-25T02:04:52.032Z,17.37
2018-07-25T02:07:20.989Z,16.70
2018-07-25T02:09:49.868Z,17.97
2018-07-25T02:12:18.315Z,18.47
2018-07-25T02:14:46.550Z,19.30
2018-07-25T02:17:14.771Z,17.43
2018-07-25T02:19:43.040Z,18.47
2018-07-25T02:22:15.647Z,18.90
2018-07-25T02:24:44.024Z,19.37
2018-07-25T02:27:12.314Z,19.77
2018-07-25T02:29:40.552Z,20.37
2018-07-25T02:32:10.115Z,19.53
2018-07-25T02:34:38.389Z,18.00
2018-07-25T02:37:06.668Z,19.03
2018-07-25T02:39:34.688Z,18.80
2018-07-25T02:42:02.889Z,19.37
2018-07-25T02:44:31.124Z,17.90
2018-07-25T02:46:59.345Z,20.25
2018-07-25T02:49:27.606Z,19.27
2018-07-25T02:52:00.607Z,19.95
2018-07-25T02:54:28.848Z,19.87
2018-07-25T02:56:57.230Z,18.25
2018-07-25T02:59:25.406Z,19.83
2018-07-25T03:01:54.571Z,17.25
2018-07-25T03:04:22.848Z,19.10
2018-07-25T03:07:03.673Z,19.27
2018-07-25T03:09:31.952Z,19.33
2018-07-25T03:12:00.239Z,21.57
2018-07-25T03:14:28.208Z,19.50
2018-07-25T03:16:56.445Z,19.67
2018-07-25T03:19:24.721Z,20.85
2018-07-25T03:21:55.890Z,20.80
2018-07-25T03:24:24.151Z,20.60
2018-07-25T03:26:52.650Z,20.17
2018-07-25T03:29:22.154Z,19.45
2018-07-25T03:31:50.400Z,20.90
2018-07-25T03:34:18.652Z,21.53
2018-07-25T03:36:46.878Z,19.70
2018-07-25T03:39:15.128Z,19.67
2018-07-25T03:41:43.433Z,21.10
2018-07-25T03:44:11.681Z,21.20
2018-07-25T03:46:39.985Z,20.17
2018-07-25T03:49:08.668Z,20.30
2018-07-25T03:51:36.919Z,22.50
2018-07-25T03:54:06.430Z,21.12
2018-07-25T03:56:34.703Z,21.53
2018-07-25T03:59:02.981Z,21.57
2018-07-25T04:01:31.255Z,21.90
2018-07-25T04:04:00.121Z,20.80
2018-07-25T04:06:28.316Z,21.00
2018-07-25T04:08:56.696Z,20.40
2018-07-25T04:11:25.229Z,21.30
2018-07-25T04:13:53.479Z,20.33
2018-07-25T04:16:21.754Z,19.10
2018-07-25T04:18:50.508Z,20.07
2018-07-25T04:21:22.099Z,21.03
2018-07-25T04:23:50.898Z,20.97
2018-07-25T04:26:19.161Z,21.93
2018-07-25T04:28:47.466Z,23.05
2018-07-25T04:31:15.713Z,20.97
2018-07-25T04:33:43.988Z,22.20
2018-07-25T04:36:15.028Z,20.70
2018-07-25T04:38:43.613Z,22.67
2018-07-25T04:41:11.897Z,21.23
2018-07-25T04:43:40.647Z,21.75
2018-07-25T04:46:09.071Z,21.90
2018-07-25T04:48:37.415Z,21.03
2018-07-25T04:51:05.718Z,19.33
2018-07-25T04:53:37.979Z,18.73
2018-07-25T04:56:06.520Z,17.33
2018-07-25T04:58:34.700Z,16.47
2018-07-25T05:01:02.925Z,17.00
2018-07-25T05:03:31.327Z,17.00
2018-07-25T05:06:00.489Z,16.23
2018-07-25T05:08:28.740Z,16.53
2018-07-25T05:10:57.016Z,16.77
2018-07-25T05:13:25.884Z,14.80
2018-07-25T05:15:54.079Z,16.60
2018-07-25T05:18:22.350Z,15.97
2018-07-25T05:20:50.636Z,15.27
2018-07-25T05:23:18.938Z,14.83
2018-07-25T05:25:47.214Z,13.80
2018-07-25T05:28:15.498Z,13.23
2018-07-25T05:30:44.824Z,14.50
2018-07-25T05:33:13.130Z,13.93
2018-07-25T05:35:41.340Z,13.70
2018-07-25T05:38:09.956Z,13.45
2018-07-25T05:40:38.206Z,14.20
2018-07-25T05:43:06.483Z,14.60
2018-07-25T05:45:34.697Z,14.07
2018-07-25T05:48:02.926Z,13.60
2018-07-25T05:50:31.412Z,13.40
2018-07-25T05:53:02.972Z,14.77
2018-07-25T05:55:30.978Z,13.88
2018-07-25T05:57:59.415Z,13.55
2018-07-25T06:00:27.648Z,14.23
2018-07-25T06:02:56.413Z,13.20
2018-07-25T06:05:24.634Z,13.70
2018-07-25T06:07:52.890Z,14.90
2018-07-25T06:10:21.115Z,13.00
2018-07-25T06:12:49.588Z,13.20
2018-07-25T06:18:48.681Z,12.70
2018-07-25T06:21:16.935Z,12.30
2018-07-25T06:23:45.438Z,13.50
2018-07-25T06:26:14.203Z,11.78
2018-07-25T06:28:42.470Z,11.60
2018-07-25T06:31:10.759Z,11.93
2018-07-25T06:33:38.965Z,11.97
2018-07-25T06:36:07.556Z,10.40
2018-07-25T06:38:35.757Z,10.03
2018-07-25T06:41:03.988Z,11.00
2018-07-25T06:43:32.256Z,10.57
2018-07-25T06:46:00.504Z,9.57
2018-07-25T06:48:28.740Z,9.37
2018-07-25T06:50:56.951Z,9.43
2018-07-25T06:53:35.416Z,9.83
2018-07-25T06:56:03.596Z,7.72
2018-07-25T06:58:32.196Z,10.63
2018-07-25T07:01:00.400Z,9.40
2018-07-25T07:03:29.099Z,7.43
2018-07-25T07:05:57.339Z,9.03
2018-07-25T07:08:28.519Z,9.13
2018-07-25T07:10:56.716Z,8.93
2018-07-25T07:13:24.961Z,9.07
2018-07-25T07:15:53.154Z,8.50
2018-07-25T07:18:21.384Z,9.63
2018-07-25T07:20:49.597Z,8.17
2018-07-25T07:23:17.884Z,9.50
2018-07-25T07:25:46.132Z,8.30
2018-07-25T07:28:14.352Z,8.37
2018-07-25T07:30:42.723Z,9.50
2018-07-25T07:33:10.923Z,9.77
2018-07-25T07:35:39.312Z,9.10
2018-07-25T07:38:07.617Z,8.90
2018-07-25T07:40:43.654Z,8.30
2018-07-25T07:43:12.242Z,8.93
2018-07-25T07:45:40.509Z,8.03
2018-07-25T07:48:09.671Z,7.85
2018-07-25T07:50:38.048Z,7.77
2018-07-25T07:53:06.302Z,8.17
2018-07-25T07:55:38.191Z,7.10
2018-07-25T07:58:06.382Z,9.17
2018-07-25T08:00:34.814Z,7.33
2018-07-25T08:03:03.241Z,7.10
2018-07-25T08:05:31.871Z,7.43
2018-07-25T08:08:00.083Z,6.20
2018-07-25T08:10:35.701Z,6.13
2018-07-25T08:13:03.868Z,6.60
2018-07-25T08:15:32.109Z,6.40
2018-07-25T08:18:00.436Z,6.43
2018-07-25T08:20:28.644Z,7.90
2018-07-25T08:22:56.823Z,6.30
2018-07-25T08:25:36.877Z,6.90
2018-07-25T08:28:05.057Z,6.73
2018-07-25T08:30:33.297Z,5.20
2018-07-25T08:33:01.893Z,6.40
2018-07-25T08:35:30.078Z,5.80
2018-07-25T08:37:58.297Z,4.77
2018-07-25T08:40:34.276Z,5.85
2018-07-25T08:43:02.787Z,5.50
2018-07-25T08:45:31.036Z,4.90
2018-07-25T08:47:59.470Z,4.28
2018-07-25T08:50:27.812Z,4.50
2018-07-25T08:52:56.163Z,3.92
2018-07-25T08:55:27.396Z,4.90
2018-07-25T08:57:55.739Z,4.62
2018-07-25T09:00:23.983Z,5.20
2018-07-25T09:02:52.676Z,4.53
2018-07-25T09:05:21.006Z,4.00
2018-07-25T09:07:49.327Z,4.33
2018-07-25T09:10:17.679Z,4.17
2018-07-25T09:12:56.629Z,3.90
2018-07-25T09:15:24.785Z,4.00
2018-07-25T09:17:53.671Z,3.52
2018-07-25T09:20:21.984Z,3.53
2018-07-25T09:22:50.235Z,3.90
2018-07-25T09:25:19.236Z,3.80
2018-07-25T09:27:50.264Z,4.57
2018-07-25T09:30:19.726Z,3.67
2018-07-25T09:32:47.964Z,3.83
2018-07-25T09:35:16.172Z,4.30
2018-07-25T09:37:44.444Z,4.62
2018-07-25T09:40:12.687Z,5.20
2018-07-25T09:42:44.319Z,3.73
2018-07-25T09:45:12.535Z,3.50
2018-07-25T09:47:40.890Z,4.40
2018-07-25T09:50:10.300Z,5.08
2018-07-25T09:52:40.096Z,4.20
2018-07-25T09:55:09.741Z,4.30
2018-07-25T09:57:38.442Z,4.50
2018-07-25T10:00:09.674Z,3.30
2018-07-25T10:02:38.466Z,4.43
2018-07-25T10:05:07.127Z,3.70
2018-07-25T10:07:35.441Z,4.30
2018-07-25T10:10:03.695Z,3.63
2018-07-25T10:12:42.849Z,4.03
2018-07-25T10:15:11.970Z,4.87
2018-07-25T10:17:40.368Z,4.40
2018-07-25T10:20:08.824Z,3.50
2018-07-25T10:22:37.025Z,4.83
2018-07-25T10:25:05.325Z,3.40
2018-07-25T10:27:33.592Z,3.33
2018-07-25T10:30:01.830Z,3.97
2018-07-25T10:32:31.067Z,3.93
2018-07-25T10:34:59.429Z,4.27
2018-07-25T10:37:27.639Z,3.97
2018-07-25T10:39:55.973Z,4.87
2018-07-25T10:42:27.402Z,3.57
2018-07-25T10:44:56.506Z,3.87
2018-07-25T10:47:24.759Z,3.80
2018-07-25T10:49:53.069Z,3.92
2018-07-25T10:52:21.310Z,3.83
2018-07-25T10:54:49.565Z,3.70
2018-07-25T10:57:21.480Z,4.80
2018-07-25T10:59:49.728Z,4.10
2018-07-25T11:02:18.133Z,4.17
2018-07-25T11:04:46.574Z,3.90
2018-07-25T11:07:14.939Z,4.30
2018-07-25T11:09:43.551Z,4.87
2018-07-25T11:12:11.722Z,5.65
2018-07-25T11:14:46.420Z,4.13
2018-07-25T11:17:14.694Z,4.80
2018-07-25T11:19:42.969Z,3.93
2018-07-25T11:22:11.731Z,4.73
2018-07-25T11:24:40.014Z,5.17
2018-07-25T11:27:08.310Z,4.20
2018-07-25T11:29:37.150Z,4.08
2018-07-25T11:32:05.480Z,4.17
2018-07-25T11:34:33.768Z,4.00
2018-07-25T11:37:02.009Z,4.80
2018-07-25T11:39:30.332Z,4.90
2018-07-25T11:41:58.557Z,5.08
2018-07-25T11:44:26.807Z,4.65
2018-07-25T11:46:55.050Z,3.72
2018-07-25T11:49:23.318Z,3.75
2018-07-25T11:51:52.290Z,3.60
2018-07-25T11:54:20.692Z,3.90
2018-07-25T11:56:49.008Z,4.33
2018-07-25T11:59:20.685Z,3.73
2018-07-25T12:01:49.019Z,4.17
2018-07-25T12:04:17.203Z,4.50
2018-07-25T12:06:46.160Z,3.85
2018-07-25T12:09:14.435Z,4.35
2018-07-25T12:11:45.864Z,3.80
2018-07-25T12:14:19.829Z,3.90
2018-07-25T12:16:48.067Z,3.37
2018-07-25T12:19:16.891Z,3.90
2018-07-25T12:21:45.144Z,3.97
2018-07-25T12:24:13.411Z,3.20
2018-07-25T12:26:42.040Z,4.42
2018-07-25T12:29:10.249Z,3.53
2018-07-25T12:31:38.886Z,3.10
2018-07-25T12:34:07.107Z,3.23
2018-07-25T12:36:35.350Z,3.33
2018-07-25T12:39:04.322Z,2.90
2018-07-25T12:41:32.521Z,3.17
2018-07-25T12:44:12.079Z,3.10
2018-07-25T12:46:40.288Z,3.12
2018-07-25T12:49:08.537Z,2.87
2018-07-25T12:51:36.712Z,3.50
2018-07-25T12:54:05.363Z,2.90
2018-07-25T12:56:33.471Z,3.17
2018-07-25T12:59:01.721Z,3.10
2018-07-25T13:01:29.919Z,3.20
2018-07-25T13:03:58.200Z,2.40
2018-07-25T13:06:26.384Z,3.30
2018-07-25T13:08:54.667Z,2.27
2018-07-25T13:11:22.868Z,2.53
2018-07-25T13:13:51.071Z,2.43
2018-07-25T13:16:19.293Z,2.47
2018-07-25T13:18:47.550Z,2.55
2018-07-25T13:21:15.751Z,2.27
2018-07-25T13:23:44.096Z,3.60
2018-07-25T13:26:12.277Z,2.17
2018-07-25T13:28:40.539Z,2.77
2018-07-25T13:31:08.683Z,2.60
2018-07-25T13:33:36.928Z,2.95
2018-07-25T13:36:05.224Z,2.33
2018-07-25T13:38:33.387Z,2.63
2018-07-25T13:41:01.608Z,2.90
2018-07-25T13:43:29.782Z,2.67
2018-07-25T13:45:58.013Z,3.10
2018-07-25T13:48:26.223Z,3.20
2018-07-25T13:50:54.448Z,2.77
2018-07-25T13:53:22.707Z,2.83
2018-07-25T13:55:50.975Z,3.30
2018-07-25T13:58:19.224Z,3.30
2018-07-25T14:00:47.407Z,2.87
2018-07-25T14:03:19.172Z,3.03
2018-07-25T14:05:47.393Z,2.53
2018-07-25T14:08:15.699Z,3.67
2018-07-25T14:10:43.956Z,2.90
2018-07-25T14:13:12.280Z,3.07
2018-07-25T14:15:40.489Z,3.35
2018-07-25T14:18:08.833Z,2.53
2018-07-25T14:20:36.983Z,3.60
2018-07-25T14:23:05.571Z,2.50
2018-07-25T14:25:33.759Z,3.10
2018-07-25T14:28:01.995Z,2.67
2018-07-25T14:30:30.299Z,2.90
2018-07-25T14:32:58.413Z,2.87
2018-07-25T14:35:26.608Z,2.13
2018-07-25T14:37:54.824Z,2.60
2018-07-25T14:40:23.136Z,2.62
2018-07-25T14:42:51.251Z,2.10
2018-07-25T14:45:19.597Z,2.45
2018-07-25T14:47:47.817Z,2.60
2018-07-25T14:50:16.093Z,2.65
2018-07-25T14:52:44.349Z,2.20
2018-07-25T14:55:12.573Z,2.87
2018-07-25T14:57:41.007Z,3.20
2018-07-25T15:00:09.739Z,2.02
2018-07-25T15:02:42.193Z,2.60
2018-07-25T15:05:10.443Z,2.95
2018-07-25T15:07:39.612Z,2.40
2018-07-25T15:10:07.892Z,2.37
2018-07-25T15:12:41.820Z,2.58
2018-07-25T15:15:11.402Z,2.22
2018-07-25T15:17:40.429Z,2.35
2018-07-25T15:20:13.027Z,2.80
2018-07-25T15:22:41.374Z,2.47
2018-07-25T15:25:09.971Z,2.47
2018-07-25T15:27:38.194Z,2.70
2018-07-25T15:30:07.848Z,2.50
2018-07-25T15:32:38.916Z,2.53
2018-07-25T15:35:07.603Z,2.27
2018-07-25T15:37:36.412Z,2.37
2018-07-25T15:40:05.280Z,2.50
2018-07-25T15:42:33.491Z,2.92
2018-07-25T15:45:01.730Z,2.30
2018-07-25T15:47:33.779Z,2.57
2018-07-25T15:50:08.527Z,2.30
2018-07-25T15:52:36.748Z,2.85
2018-07-25T15:55:05.023Z,2.53
2018-07-25T15:57:33.427Z,3.20
2018-07-25T16:00:01.668Z,3.13
2018-07-25T16:02:33.199Z,2.35
2018-07-25T16:05:01.152Z,3.37
2018-07-25T16:07:29.388Z,3.47
2018-07-25T16:09:57.691Z,2.90
2018-07-25T16:12:26.135Z,2.50
2018-07-25T16:14:54.435Z,2.90
2018-07-25T16:17:22.747Z,3.13
2018-07-25T16:19:51.032Z,3.30
2018-07-25T16:22:19.340Z,3.23
2018-07-25T16:24:47.977Z,3.57
2018-07-25T16:27:17.313Z,2.52
2018-07-25T16:29:45.670Z,3.10
2018-07-25T16:32:13.911Z,2.90
2018-07-25T16:34:42.236Z,2.73
2018-07-25T16:37:10.768Z,2.93
2018-07-25T16:39:39.063Z,2.70
2018-07-25T16:42:07.614Z,2.90
2018-07-25T16:44:36.614Z,2.27
2018-07-25T16:47:05.048Z,2.50
2018-07-25T16:49:37.513Z,2.67
2018-07-25T16:52:05.722Z,2.55
2018-07-25T16:54:33.959Z,1.97
2018-07-25T16:57:02.003Z,2.10
2018-07-25T16:59:30.270Z,2.30
2018-07-25T17:01:58.472Z,2.02
2018-07-25T17:04:30.207Z,1.80
2018-07-25T17:06:58.452Z,2.03
2018-07-25T17:09:27.070Z,1.92
2018-07-25T17:11:55.271Z,2.10
2018-07-25T17:14:23.692Z,2.15
2018-07-25T17:16:51.967Z,2.00
2018-07-25T17:19:23.164Z,2.03
2018-07-25T17:21:51.359Z,1.77
2018-07-25T17:24:20.588Z,2.13
2018-07-25T17:26:48.759Z,1.90
2018-07-25T17:29:16.984Z,2.27
2018-07-25T17:31:45.240Z,2.00
2018-07-25T17:34:13.458Z,2.40
2018-07-25T17:36:41.864Z,2.08
2018-07-25T17:39:11.249Z,1.83
2018-07-25T17:41:40.279Z,2.03
2018-07-25T17:44:08.591Z,2.10
2018-07-25T17:46:36.790Z,2.50
2018-07-25T17:49:08.008Z,1.90
2018-07-25T17:51:37.257Z,1.60
2018-07-25T17:54:05.608Z,2.33
2018-07-25T17:56:33.907Z,1.90
2018-07-25T17:59:02.138Z,1.80
2018-07-25T18:01:30.361Z,2.20
2018-07-25T18:03:58.600Z,2.50
2018-07-25T18:06:26.826Z,2.13
2018-07-25T18:08:55.348Z,2.40
2018-07-25T18:11:23.565Z,2.10
2018-07-25T18:13:57.198Z,2.33
2018-07-25T18:16:25.661Z,2.42
2018-07-25T18:18:54.414Z,2.10
2018-07-25T18:21:22.732Z,2.00
2018-07-25T18:23:51.878Z,2.50
2018-07-25T18:26:20.120Z,2.20
2018-07-25T18:28:48.383Z,2.67
2018-07-25T18:31:17.058Z,2.47
2018-07-25T18:33:45.356Z,2.30
2018-07-25T18:36:13.589Z,2.50
2018-07-25T18:38:41.827Z,3.25
2018-07-25T18:41:10.465Z,2.67
2018-07-25T18:43:38.656Z,3.07
2018-07-25T18:46:06.969Z,3.50
2018-07-25T18:48:41.925Z,3.30
2018-07-25T18:51:16.019Z,3.77
2018-07-25T18:53:44.623Z,2.60
2018-07-25T18:56:20.105Z,3.00
2018-07-25T18:58:49.543Z,2.40
2018-07-25T19:01:17.966Z,3.30
2018-07-25T19:03:46.154Z,2.60
2018-07-25T19:06:14.432Z,3.47
2018-07-25T19:08:42.660Z,3.60
2018-07-25T19:11:11.063Z,3.47
2018-07-25T19:13:39.303Z,4.20
2018-07-25T19:16:07.513Z,3.03
2018-07-25T19:18:35.757Z,3.40
2018-07-25T19:21:03.970Z,3.00
2018-07-25T19:23:33.186Z,3.83
2018-07-25T19:26:01.517Z,3.30
2018-07-25T19:28:29.778Z,2.50
2018-07-25T19:30:58.389Z,3.33
2018-07-25T19:33:26.804Z,3.33
2018-07-25T19:35:59.442Z,3.40
2018-07-25T19:38:27.698Z,3.70
2018-07-25T19:40:55.948Z,3.00
2018-07-25T19:43:24.253Z,3.00
2018-07-25T19:45:52.479Z,3.70
2018-07-25T19:48:20.771Z,4.90
2018-07-25T19:50:48.978Z,3.83
2018-07-25T19:53:18.101Z,4.07
2018-07-25T19:55:46.411Z,4.17
2018-07-25T19:58:14.636Z,4.63
2018-07-25T20:00:43.276Z,4.37
2018-07-25T20:03:11.495Z,3.70
2018-07-25T20:05:39.969Z,3.67
2018-07-25T20:08:08.163Z,4.15
2018-07-25T20:10:36.382Z,3.77
2018-07-25T20:13:04.567Z,4.37
2018-07-25T20:15:38.251Z,3.87
2018-07-25T20:18:07.162Z,4.75
2018-07-25T20:20:35.389Z,3.40
2018-07-25T20:23:10.765Z,3.35
2018-07-25T20:25:39.231Z,4.62
2018-07-25T20:28:07.427Z,4.37
2018-07-25T20:30:35.671Z,4.83
2018-07-25T20:33:03.662Z,4.80
2018-07-25T20:35:31.888Z,4.33
2018-07-25T20:38:03.659Z,5.75
2018-07-25T20:40:31.874Z,3.83
2018-07-25T20:43:00.155Z,4.00
2018-07-25T20:45:29.039Z,4.37
2018-07-25T20:47:57.305Z,3.97
2018-07-25T20:50:25.555Z,4.37
2018-07-25T20:52:53.967Z,4.67
2018-07-25T20:55:22.136Z,3.90
2018-07-25T20:57:50.372Z,4.83
2018-07-25T21:00:22.879Z,5.00
2018-07-25T21:02:51.132Z,4.05
2018-07-25T21:05:19.325Z,4.87
2018-07-25T21:07:50.582Z,4.53
2018-07-25T21:10:19.460Z,4.16
2018-07-25T21:12:47.753Z,4.30
2018-07-25T21:15:15.970Z,4.77
2018-07-25T21:17:44.184Z,4.30
2018-07-25T21:20:12.233Z,4.70
2018-07-25T21:22:40.441Z,4.63
2018-07-25T21:25:08.819Z,4.57
2018-07-25T21:27:37.371Z,4.03
2018-07-25T21:30:05.586Z,4.67
2018-07-25T21:32:33.978Z,4.30
2018-07-25T21:35:02.175Z,4.30
2018-07-25T21:37:30.700Z,5.00
2018-07-25T21:40:01.916Z,4.83
2018-07-25T21:42:30.137Z,5.03
2018-07-25T21:44:58.553Z,5.60
2018-07-25T21:47:26.788Z,5.20
2018-07-25T21:49:55.024Z,5.40
2018-07-25T21:52:23.208Z,5.35
2018-07-25T21:54:54.667Z,4.40
2018-07-25T21:57:23.563Z,4.93
2018-07-25T21:59:51.745Z,5.60
2018-07-25T22:02:19.959Z,4.95
2018-07-25T22:04:48.188Z,5.15
2018-07-25T22:07:16.372Z,5.40
2018-07-25T22:09:47.606Z,5.10
2018-07-25T22:12:15.856Z,5.37
2018-07-25T22:14:44.125Z,4.60
2018-07-25T22:17:12.411Z,5.23
2018-07-25T22:19:40.641Z,5.35
2018-07-25T22:22:08.841Z,5.37
2018-07-25T22:24:40.516Z,4.90
2018-07-25T22:27:08.716Z,5.47
2018-07-25T22:29:36.695Z,5.40
2018-07-25T22:32:04.940Z,4.10
2018-07-25T22:34:33.235Z,4.95
2018-07-25T22:37:01.457Z,5.83
2018-07-25T22:39:33.551Z,6.00
2018-07-25T22:42:01.759Z,5.77
2018-07-25T22:44:29.999Z,4.90
2018-07-25T22:46:58.221Z,6.03
2018-07-25T22:49:26.452Z,5.17
2018-07-25T22:51:54.642Z,5.67
2018-07-25T22:54:25.771Z,5.25
2018-07-25T22:56:54.042Z,5.10
2018-07-25T22:59:23.143Z,7.45
2018-07-25T23:01:51.376Z,6.10
2018-07-25T23:04:19.579Z,5.57
2018-07-25T23:06:48.213Z,6.93
2018-07-25T23:09:20.233Z,5.70
2018-07-25T23:11:48.612Z,5.58
2018-07-25T23:14:16.931Z,6.00
2018-07-25T23:16:44.867Z,6.55
2018-07-25T23:19:13.246Z,5.70
2018-07-25T23:21:41.500Z,6.37
2018-07-25T23:24:09.753Z,5.30
2018-07-25T23:26:42.261Z,6.30
2018-07-25T23:29:10.572Z,5.87
2018-07-25T23:31:38.808Z,5.50
2018-07-25T23:34:07.093Z,5.70
2018-07-25T23:36:35.260Z,6.00
2018-07-25T23:39:04.529Z,6.00
2018-07-25T23:41:33.408Z,5.47
2018-07-25T23:44:01.629Z,6.40
2018-07-25T23:46:29.865Z,6.30
2018-07-25T23:48:58.044Z,6.80
2018-07-25T23:51:26.276Z,6.40
2018-07-25T23:53:54.495Z,4.97
2018-07-25T23:56:22.799Z,6.33
2018-07-25T23:58:51.014Z,7.10
